Time;durP1;ratioP1;P1;durP2;ratioP2;P2;SDS_P1;SDS_P2;PMS_P1;PMS_P2;Temp;Humidity;BMP_temperature;BMP_pressure;BME280_temperature;BME280_humidity;BME280_pressure;Samples;Min_cycle;Max_cycle;Signal;HPM_P1;HPM_P2
2022/07/31 00:00:44;;;;;;;8.50;6.40;;;14.90;99.90;;;;;;5012677;28;20040;-86
2022/07/31 00:03:10;;;;;;;8.60;7.13;;;14.80;99.90;;;;;;5012697;28;20080;-86
2022/07/31 00:05:36;;;;;;;9.30;7.63;;;14.90;99.90;;;;;;4996424;28;20029;-86
2022/07/31 00:08:03;;;;;;;11.75;7.32;;;14.90;99.90;;;;;;5012751;28;20127;-87
2022/07/31 00:10:28;;;;;;;9.45;7.50;;;14.90;99.90;;;;;;4996182;28;20038;-87
2022/07/31 00:12:54;;;;;;;10.48;7.85;;;14.90;99.90;;;;;;4995798;28;20045;-86
2022/07/31 00:15:20;;;;;;;10.27;7.70;;;14.80;99.90;;;;;;4995547;28;20029;-87
2022/07/31 00:17:46;;;;;;;10.77;8.02;;;14.80;99.90;;;;;;4995761;28;20034;-87
2022/07/31 00:20:49;;;;;;;10.70;8.73;;;14.70;99.90;;;;;;4996137;28;20501;-87
2022/07/31 00:23:15;;;;;;;15.10;8.50;;;14.70;99.90;;;;;;5012526;28;20076;-86
2022/07/31 00:25:40;;;;;;;12.57;9.10;;;14.60;99.90;;;;;;4996031;28;20077;-86
2022/07/31 00:28:06;;;;;;;12.68;10.07;;;14.60;99.90;;;;;;4995772;28;20030;-87
2022/07/31 00:30:32;;;;;;;15.45;9.07;;;14.60;99.90;;;;;;4996033;28;20034;-86
2022/07/31 00:32:57;;;;;;;12.00;9.50;;;14.60;99.90;;;;;;4996041;28;20091;-86
2022/07/31 00:35:23;;;;;;;11.88;8.85;;;14.60;99.90;;;;;;4996233;28;20367;-86
2022/07/31 00:37:49;;;;;;;10.63;8.48;;;14.60;99.90;;;;;;5012160;28;20486;-87
2022/07/31 00:40:16;;;;;;;13.32;9.35;;;14.50;99.90;;;;;;4996043;28;20041;-87
2022/07/31 00:42:42;;;;;;;12.63;9.05;;;14.50;99.90;;;;;;5012629;28;20041;-86
2022/07/31 00:45:09;;;;;;;14.48;9.25;;;14.50;99.90;;;;;;4996100;28;20026;-87
2022/07/31 00:47:34;;;;;;;12.45;9.80;;;14.50;99.90;;;;;;5012328;28;20030;-86
2022/07/31 00:50:01;;;;;;;17.88;10.07;;;14.50;99.90;;;;;;4996027;28;20026;-87
2022/07/31 00:52:27;;;;;;;11.15;8.50;;;14.60;99.90;;;;;;5012437;28;20026;-87
2022/07/31 00:54:53;;;;;;;12.95;9.25;;;14.60;99.90;;;;;;4995600;28;20041;-86
2022/07/31 00:57:19;;;;;;;10.13;8.43;;;14.70;99.90;;;;;;4995764;28;20026;-87
2022/07/31 00:59:44;;;;;;;9.30;8.23;;;14.80;99.90;;;;;;5011350;28;20505;-87
2022/07/31 01:02:19;;;;;;;8.75;7.88;;;14.80;99.90;;;;;;5010868;28;20092;-87
2022/07/31 01:04:46;;;;;;;11.82;8.55;;;14.90;99.90;;;;;;5014646;28;20036;-86
2022/07/31 01:07:11;;;;;;;9.43;8.43;;;15.00;99.90;;;;;;4999048;28;20026;-87
2022/07/31 01:09:37;;;;;;;11.45;9.05;;;15.00;99.90;;;;;;4999365;28;20080;-87
2022/07/31 01:12:19;;;;;;;10.50;8.23;;;15.10;99.90;;;;;;4999494;28;20034;-87
2022/07/31 01:14:52;;;;;;;10.65;8.68;;;15.20;99.90;;;;;;4999184;28;20033;-86
2022/07/31 01:17:21;;;;;;;10.05;8.18;;;15.20;99.90;;;;;;5015666;28;20030;-86
2022/07/31 01:19:50;;;;;;;13.88;8.73;;;15.10;99.90;;;;;;5015562;28;20037;-86
2022/07/31 01:22:34;;;;;;;11.00;8.75;;;15.00;99.90;;;;;;4999429;28;20129;-87
2022/07/31 01:25:25;;;;;;;9.57;7.88;;;14.90;99.90;;;;;;4999471;28;20065;-87
2022/07/31 01:28:31;;;;;;;10.48;9.32;;;14.80;99.90;;;;;;5000929;28;20490;-87
2022/07/31 01:31:06;;;;;;;10.10;8.07;;;14.80;99.90;;;;;;4999359;28;20559;-86
2022/07/31 01:33:58;;;;;;;11.63;8.57;;;14.70;99.90;;;;;;4998795;28;20033;-86
2022/07/31 01:36:26;;;;;;;12.27;8.30;;;14.70;99.90;;;;;;5015101;28;20038;-87
2022/07/31 01:38:56;;;;;;;13.68;8.68;;;14.60;99.90;;;;;;4999201;28;20099;-87
2022/07/31 01:41:28;;;;;;;8.98;8.07;;;14.70;99.90;;;;;;4998949;28;20478;-86
2022/07/31 01:43:57;;;;;;;10.02;8.98;;;14.80;99.90;;;;;;4998754;28;20030;-87
2022/07/31 01:46:26;;;;;;;10.60;9.25;;;14.80;99.90;;;;;;4999541;28;20477;-87
2022/07/31 01:48:54;;;;;;;11.90;8.55;;;14.80;99.90;;;;;;4999052;28;20108;-86
2022/07/31 01:51:22;;;;;;;9.20;7.65;;;14.90;99.90;;;;;;5015460;28;20482;-87
2022/07/31 01:53:51;;;;;;;9.93;8.48;;;15.00;99.90;;;;;;5014413;28;20030;-86
2022/07/31 01:56:19;;;;;;;10.98;8.77;;;15.10;99.90;;;;;;4998211;28;20503;-87
2022/07/31 01:58:48;;;;;;;10.02;8.40;;;15.10;99.90;;;;;;5014773;28;20045;-86
2022/07/31 02:01:42;;;;;;;11.77;7.68;;;15.10;99.90;;;;;;4974919;28;20035;-86
2022/07/31 02:04:08;;;;;;;9.23;7.53;;;15.10;99.90;;;;;;4998080;28;20060;-87
2022/07/31 02:06:35;;;;;;;8.38;7.18;;;15.10;99.90;;;;;;5014429;28;20026;-87
2022/07/31 02:09:01;;;;;;;11.27;7.53;;;15.10;99.90;;;;;;5014827;28;20030;-86
2022/07/31 02:11:30;;;;;;;10.20;7.75;;;15.10;99.90;;;;;;4998844;28;20064;-87
2022/07/31 02:13:56;;;;;;;10.32;8.02;;;15.00;99.90;;;;;;4997780;28;20060;-87
2022/07/31 02:16:25;;;;;;;11.27;7.97;;;14.90;99.90;;;;;;4998566;28;20053;-87
2022/07/31 02:19:02;;;;;;;10.52;7.20;;;14.90;99.90;;;;;;5000071;28;20036;-86
2022/07/31 02:21:28;;;;;;;12.20;8.00;;;14.80;99.90;;;;;;4998289;28;20552;-87
2022/07/31 02:23:55;;;;;;;10.35;8.10;;;14.70;99.90;;;;;;4997813;28;20080;-87
2022/07/31 02:26:21;;;;;;;10.65;7.65;;;14.70;99.90;;;;;;4998896;28;20484;-87
2022/07/31 02:28:47;;;;;;;10.45;8.52;;;14.60;99.90;;;;;;4997701;28;20037;-87
2022/07/31 02:31:15;;;;;;;12.68;8.48;;;14.60;99.90;;;;;;4998014;28;20041;-87
2022/07/31 02:33:46;;;;;;;9.50;8.07;;;14.70;99.90;;;;;;4998193;28;20030;-87
2022/07/31 02:36:14;;;;;;;10.55;8.18;;;14.70;99.90;;;;;;5014265;28;20025;-86
2022/07/31 02:38:42;;;;;;;9.13;8.02;;;14.70;99.90;;;;;;4997626;28;20030;-86
2022/07/31 02:41:10;;;;;;;12.70;8.35;;;14.70;99.90;;;;;;4997745;28;20053;-86
2022/07/31 02:43:36;;;;;;;8.07;7.20;;;14.80;99.90;;;;;;4997895;28;20053;-87
2022/07/31 02:46:14;;;;;;;10.52;7.82;;;14.80;99.90;;;;;;5014066;28;20030;-86
2022/07/31 02:48:41;;;;;;;8.48;7.63;;;14.70;99.90;;;;;;4997508;28;20045;-86
2022/07/31 02:51:10;;;;;;;10.38;7.20;;;14.60;99.90;;;;;;4998030;28;20366;-88
2022/07/31 02:53:36;;;;;;;13.10;8.25;;;14.60;99.90;;;;;;4997064;28;20033;-87
2022/07/31 02:56:05;;;;;;;9.32;7.45;;;14.50;99.90;;;;;;4997810;28;20744;-87
2022/07/31 02:58:40;;;;;;;9.35;7.57;;;14.50;99.90;;;;;;4998470;28;20026;-87
2022/07/31 03:02:03;;;;;;;13.05;8.45;;;14.40;99.90;;;;;;4997588;28;20021;-87
2022/07/31 03:04:30;;;;;;;10.48;8.43;;;14.30;99.90;;;;;;4996971;28;20017;-86
2022/07/31 03:06:59;;;;;;;13.55;8.77;;;14.20;99.90;;;;;;4997159;28;20545;-87
2022/07/31 03:09:25;;;;;;;12.43;8.07;;;14.10;99.90;;;;;;4997105;28;20382;-87
2022/07/31 03:12:05;;;;;;;12.82;9.88;;;14.00;99.90;;;;;;4998734;28;20041;-86
2022/07/31 03:14:34;;;;;;;10.80;8.68;;;13.90;99.90;;;;;;5013002;28;20124;-87
2022/07/31 03:17:00;;;;;;;12.10;7.70;;;13.80;99.90;;;;;;4997339;28;20038;-86
2022/07/31 03:19:27;;;;;;;9.18;8.00;;;13.80;99.90;;;;;;5013465;28;20030;-87
2022/07/31 03:21:55;;;;;;;9.82;8.50;;;13.70;99.90;;;;;;4997177;28;20084;-86
2022/07/31 03:24:21;;;;;;;9.88;8.70;;;13.60;99.90;;;;;;4997206;28;20056;-87
2022/07/31 03:26:47;;;;;;;10.00;8.52;;;13.60;99.90;;;;;;4996347;28;20069;-86
2022/07/31 03:29:14;;;;;;;9.85;7.95;;;13.60;99.90;;;;;;4997434;28;20034;-87
2022/07/31 03:31:39;;;;;;;12.38;8.68;;;13.60;99.90;;;;;;4996941;28;20034;-86
2022/07/31 03:34:05;;;;;;;11.75;8.85;;;13.50;99.90;;;;;;4996533;28;20026;-87
2022/07/31 03:36:31;;;;;;;10.10;8.98;;;13.50;99.90;;;;;;5014132;28;20026;-87
2022/07/31 03:38:57;;;;;;;9.38;7.70;;;13.40;99.90;;;;;;4996808;28;20053;-87
2022/07/31 03:41:29;;;;;;;11.75;8.43;;;13.40;99.90;;;;;;4998006;28;20026;-87
2022/07/31 03:44:41;;;;;;;9.27;7.53;;;13.40;99.90;;;;;;4996565;28;20065;-86
2022/07/31 03:47:07;;;;;;;10.13;8.23;;;13.40;99.90;;;;;;4996631;28;20097;-86
2022/07/31 03:49:34;;;;;;;8.85;7.88;;;13.40;99.90;;;;;;4996702;28;20457;-87
2022/07/31 03:52:00;;;;;;;11.63;7.97;;;13.40;99.90;;;;;;4996731;28;20048;-87
2022/07/31 03:54:25;;;;;;;12.35;8.45;;;13.40;99.90;;;;;;5012111;28;20116;-84
2022/07/31 03:57:12;;;;;;;13.68;9.45;;;13.40;99.90;;;;;;5012529;28;20064;-84
2022/07/31 03:59:40;;;;;;;9.75;8.70;;;13.30;99.90;;;;;;4996477;28;20729;-85
2022/07/31 04:02:06;;;;;;;10.93;8.00;;;13.30;99.90;;;;;;4996547;28;20038;-84
2022/07/31 04:04:38;;;;;;;9.40;8.40;;;13.30;99.90;;;;;;4997121;28;20577;-85
2022/07/31 04:07:05;;;;;;;13.48;8.23;;;13.30;99.90;;;;;;4996308;28;20084;-84
2022/07/31 04:09:31;;;;;;;14.57;7.75;;;13.40;99.90;;;;;;5012183;28;20030;-84
2022/07/31 04:11:56;;;;;;;8.60;7.70;;;13.40;99.90;;;;;;4995899;28;20827;-84
2022/07/31 04:14:22;;;;;;;13.73;8.32;;;13.50;99.90;;;;;;4995839;28;20026;-84
2022/07/31 04:16:48;;;;;;;9.38;8.05;;;13.60;99.90;;;;;;4996177;28;20051;-85
2022/07/31 04:19:14;;;;;;;11.52;7.65;;;13.80;99.90;;;;;;5011883;28;20087;-84
2022/07/31 04:21:40;;;;;;;8.43;7.22;;;13.90;99.90;;;;;;4995966;28;20129;-85
2022/07/31 04:24:06;;;;;;;10.02;7.88;;;14.10;99.90;;;;;;5012033;28;20033;-84
2022/07/31 04:26:54;;;;;;;8.98;7.05;;;14.30;99.90;;;;;;5011937;28;20659;-84
2022/07/31 04:29:23;;;;;;;8.10;6.63;;;14.60;99.90;;;;;;4995841;28;20026;-84
2022/07/31 04:31:48;;;;;;;9.48;7.10;;;14.80;99.90;;;;;;4996058;28;20040;-84
2022/07/31 04:34:22;;;;;;;8.60;6.90;;;15.00;99.90;;;;;;4997004;28;20034;-84
2022/07/31 04:36:48;;;;;;;10.98;6.75;;;15.20;99.90;;;;;;4995583;28;20022;-84
2022/07/31 04:39:14;;;;;;;7.82;6.20;;;15.40;99.90;;;;;;5011842;28;20030;-84
2022/07/31 04:41:40;;;;;;;7.22;6.15;;;15.60;99.90;;;;;;4995449;28;20053;-85
2022/07/31 04:44:06;;;;;;;10.93;5.75;;;15.70;99.90;;;;;;5011411;28;20531;-85
2022/07/31 04:46:48;;;;;;;8.52;6.32;;;15.90;99.90;;;;;;4997732;28;20084;-85
2022/07/31 04:49:14;;;;;;;7.80;6.05;;;16.00;99.90;;;;;;4995701;28;20034;-86
2022/07/31 04:51:41;;;;;;;11.07;6.35;;;16.10;99.90;;;;;;4995547;28;20057;-84
2022/07/31 04:54:08;;;;;;;6.32;5.63;;;16.30;99.90;;;;;;4994465;28;20022;-84
2022/07/31 04:56:40;;;;;;;7.32;5.43;;;16.50;99.90;;;;;;5011995;28;20032;-85
2022/07/31 04:59:14;;;;;;;6.13;5.53;;;16.60;99.90;;;;;;4995667;28;20036;-84
2022/07/31 05:01:44;;;;;;;7.78;5.03;;;16.80;99.90;;;;;;4995982;28;20084;-85
2022/07/31 05:04:13;;;;;;;7.55;5.70;;;16.90;99.90;;;;;;4995280;28;20026;-85
2022/07/31 05:06:45;;;;;;;8.93;5.53;;;17.10;99.90;;;;;;4994762;28;20026;-84
2022/07/31 05:09:13;;;;;;;;;;;17.30;99.90;;;;;;5012309;28;20057;-85
2022/07/31 05:11:41;;;;;;;6.10;5.47;;;17.40;99.90;;;;;;4995484;28;19921;-84
2022/07/31 05:14:08;;;;;;;8.48;5.50;;;17.60;99.90;;;;;;4994733;28;20053;-84
2022/07/31 05:16:35;;;;;;;8.30;6.20;;;17.70;99.90;;;;;;4994801;28;20034;-85
2022/07/31 05:19:01;;;;;;;9.90;5.57;;;17.80;99.90;;;;;;4995107;28;20038;-84
2022/07/31 05:21:46;;;;;;;7.72;5.85;;;17.90;99.90;;;;;;5013100;28;20076;-84
2022/07/31 05:24:30;;;;;;;7.72;5.30;;;18.10;99.90;;;;;;5012107;28;20504;-84
2022/07/31 05:27:03;;;;;;;7.05;5.40;;;18.20;99.90;;;;;;4995411;28;20025;-84
2022/07/31 05:29:30;;;;;;;8.52;5.28;;;18.40;99.90;;;;;;4995006;28;20034;-85
2022/07/31 05:31:56;;;;;;;8.27;5.47;;;18.50;99.90;;;;;;4994467;28;20057;-85
2022/07/31 05:34:22;;;;;;;6.43;5.50;;;18.70;99.90;;;;;;4994751;28;20026;-85
2022/07/31 05:36:49;;;;;;;8.10;5.28;;;18.80;99.90;;;;;;4995206;28;20072;-84
2022/07/31 05:39:16;;;;;;;9.38;6.28;;;18.90;99.90;;;;;;4994791;28;20440;-84
2022/07/31 05:42:02;;;;;;;5.75;5.15;;;19.00;99.90;;;;;;5000817;28;20033;-84
2022/07/31 05:44:44;;;;;;;8.40;5.38;;;19.00;99.90;;;;;;5010811;28;20044;-84
2022/07/31 05:47:10;;;;;;;7.25;5.07;;;19.10;99.90;;;;;;4995052;28;20116;-85
2022/07/31 05:49:37;;;;;;;7.28;4.80;;;19.10;99.90;;;;;;4996190;28;20030;-84
2022/07/31 05:52:04;;;;;;;7.53;5.13;;;19.20;99.90;;;;;;4998342;28;20038;-85
2022/07/31 05:54:31;;;;;;;6.38;5.30;;;19.20;99.90;;;;;;4997904;28;20029;-84
2022/07/31 05:57:35;;;;;;;7.40;5.07;;;19.30;99.90;;;;;;5002196;28;20037;-84
2022/07/31 06:00:03;;;;;;;8.45;4.90;;;19.30;99.90;;;;;;4980708;28;20036;-85
2022/07/31 06:02:37;;;;;;;6.03;4.85;;;19.40;99.90;;;;;;5004358;28;20092;-84
2022/07/31 06:05:22;;;;;;;5.18;4.63;;;19.40;99.90;;;;;;5015436;28;20099;-84
2022/07/31 06:07:50;;;;;;;6.07;4.75;;;19.50;99.90;;;;;;4997605;28;20397;-84
2022/07/31 06:10:16;;;;;;;5.13;4.47;;;19.70;99.90;;;;;;4997703;28;20041;-85
2022/07/31 06:12:42;;;;;;;5.97;4.93;;;19.90;99.90;;;;;;5013765;28;20474;-84
2022/07/31 06:15:08;;;;;;;6.10;5.03;;;20.20;99.90;;;;;;4997670;28;20083;-84
2022/07/31 06:17:40;;;;;;;9.25;4.60;;;20.40;99.90;;;;;;5013778;28;20034;-85
2022/07/31 06:20:14;;;;;;;9.02;4.50;;;20.70;99.90;;;;;;4998349;28;20034;-85
2022/07/31 06:22:44;;;;;;;8.90;4.53;;;21.00;99.90;;;;;;4997380;28;20046;-84
2022/07/31 06:25:11;;;;;;;5.10;3.65;;;21.40;99.90;;;;;;5014033;28;20026;-85
2022/07/31 06:27:38;;;;;;;5.75;3.90;;;21.80;99.90;;;;;;4998020;28;20030;-85
2022/07/31 06:30:05;;;;;;;5.43;3.92;;;22.20;99.90;;;;;;4997749;28;20045;-85
2022/07/31 06:32:34;;;;;;;4.88;3.47;;;22.70;99.90;;;;;;4997734;28;20026;-85
2022/07/31 06:35:01;;;;;;;5.25;3.58;;;23.00;99.90;;;;;;5013942;28;20076;-85
2022/07/31 06:37:30;;;;;;;3.97;3.10;;;23.30;99.90;;;;;;4998194;28;20494;-85
2022/07/31 06:39:57;;;;;;;5.00;3.13;;;23.60;99.90;;;;;;4998074;28;20026;-85
2022/07/31 06:42:44;;;;;;;3.88;3.15;;;23.70;99.90;;;;;;4973149;28;20138;-85
2022/07/31 06:45:12;;;;;;;5.38;4.07;;;23.50;99.90;;;;;;5008801;28;20034;-85
2022/07/31 06:47:56;;;;;;;5.10;3.40;;;23.40;99.90;;;;;;5013604;28;20053;-85
2022/07/31 06:50:44;;;;;;;4.90;3.47;;;23.00;99.90;;;;;;4999374;28;20179;-85
2022/07/31 06:53:27;;;;;;;6.13;3.70;;;22.90;99.90;;;;;;4999280;28;20103;-85
2022/07/31 06:55:53;;;;;;;5.13;3.08;;;22.80;99.90;;;;;;5013680;28;20034;-86
2022/07/31 06:58:25;;;;;;;4.25;3.05;;;22.90;99.90;;;;;;4996985;28;20026;-80
2022/07/31 07:00:51;;;;;;;9.38;3.67;;;23.00;99.90;;;;;;4996416;28;20482;-85
2022/07/31 07:03:18;;;;;;;4.70;3.35;;;23.20;99.90;;;;;;4997214;28;20116;-85
2022/07/31 07:05:43;;;;;;;9.75;4.15;;;23.20;99.90;;;;;;4997292;28;20168;-85
2022/07/31 07:08:09;;;;;;;9.80;3.80;;;22.90;99.90;;;;;;4997333;28;20033;-85
2022/07/31 07:10:35;;;;;;;6.18;3.55;;;22.80;99.90;;;;;;4996661;28;20036;-85
2022/07/31 07:13:25;;;;;;;7.93;4.03;;;22.70;99.90;;;;;;5000136;28;20029;-85
2022/07/31 07:16:10;;;;;;;5.88;3.58;;;22.40;99.90;;;;;;4996960;28;20448;-85
2022/07/31 07:18:36;;;;;;;7.05;3.72;;;22.30;99.90;;;;;;5013585;28;20030;-85
2022/07/31 07:21:03;;;;;;;4.68;3.45;;;22.30;99.90;;;;;;4996944;28;20450;-85
2022/07/31 07:23:35;;;;;;;5.25;3.53;;;22.20;99.90;;;;;;4996592;28;20034;-85
2022/07/31 07:26:26;;;;;;;5.05;3.78;;;22.40;99.90;;;;;;4999809;28;20037;-85
2022/07/31 07:28:53;;;;;;;5.55;3.65;;;22.40;99.90;;;;;;4996862;28;20037;-85
2022/07/31 07:31:18;;;;;;;4.20;3.40;;;22.60;99.90;;;;;;5013040;28;20094;-85
2022/07/31 07:33:45;;;;;;;5.40;3.50;;;22.70;99.90;;;;;;4996482;28;20030;-85
2022/07/31 07:36:14;;;;;;;4.32;3.45;;;22.80;99.90;;;;;;4996754;28;20030;-85
2022/07/31 07:38:40;;;;;;;8.55;3.90;;;23.00;99.90;;;;;;4996390;28;20574;-85
2022/07/31 07:41:05;;;;;;;4.82;3.45;;;23.10;99.90;;;;;;5012895;28;20041;-85
2022/07/31 07:43:31;;;;;;;5.75;3.10;;;23.30;99.90;;;;;;5014186;28;20029;-85
2022/07/31 07:45:57;;;;;;;5.93;3.00;;;23.60;99.90;;;;;;4996508;28;20030;-85
2022/07/31 07:48:30;;;;;;;6.82;3.85;;;24.10;99.90;;;;;;5012982;28;20042;-85
2022/07/31 07:51:16;;;;;;;7.03;3.40;;;24.30;99.90;;;;;;4998531;28;20490;-85
2022/07/31 07:53:56;;;;;;;6.18;3.72;;;24.60;99.90;;;;;;4997770;28;20022;-85
2022/07/31 07:56:54;;;;;;;12.85;3.70;;;24.70;99.90;;;;;;5013869;28;20493;-85
2022/07/31 08:00:17;;;;;;;6.07;3.85;;;24.80;99.90;;;;;;5013569;28;20070;-85
2022/07/31 08:02:45;;;;;;;5.93;3.33;;;24.80;99.90;;;;;;5013047;28;20088;-85
2022/07/31 08:05:14;;;;;;;8.60;3.97;;;25.00;99.40;;;;;;5012489;28;20032;-85
2022/07/31 08:07:41;;;;;;;7.28;3.85;;;25.50;99.90;;;;;;4996407;28;20034;-86
2022/07/31 08:10:21;;;;;;;3.70;3.33;;;25.70;98.10;;;;;;4998063;28;20033;-85
2022/07/31 08:13:00;;;;;;;4.47;3.17;;;26.30;97.90;;;;;;4997654;28;20040;-85
2022/07/31 08:15:51;;;;;;;8.88;3.53;;;26.70;95.10;;;;;;4997719;28;20030;-85
2022/07/31 08:18:31;;;;;;;8.88;4.20;;;26.50;94.50;;;;;;4998001;28;20030;-86
2022/07/31 08:20:57;;;;;;;7.75;3.72;;;26.60;94.70;;;;;;4995863;28;20148;-85
2022/07/31 08:23:23;;;;;;;5.40;3.05;;;26.30;95.40;;;;;;4995516;28;20054;-85
2022/07/31 08:25:49;;;;;;;8.05;4.07;;;26.10;94.90;;;;;;4995374;28;20508;-86
2022/07/31 08:28:15;;;;;;;5.70;3.33;;;25.70;95.10;;;;;;4995666;28;20038;-85
2022/07/31 08:30:42;;;;;;;8.43;3.47;;;25.60;95.10;;;;;;5012117;28;20516;-86
2022/07/31 08:33:10;;;;;;;4.90;3.67;;;25.70;94.80;;;;;;4995830;28;20057;-86
2022/07/31 08:35:38;;;;;;;6.75;3.38;;;26.00;94.10;;;;;;4995553;28;20034;-85
2022/07/31 08:38:05;;;;;;;6.60;3.33;;;26.00;94.10;;;;;;4995488;28;20489;-85
2022/07/31 08:40:39;;;;;;;7.93;3.13;;;25.90;93.60;;;;;;5011963;28;20091;-85
2022/07/31 08:43:04;;;;;;;3.97;3.17;;;25.80;92.20;;;;;;4995324;28;20117;-85
2022/07/31 08:45:31;;;;;;;3.55;3.20;;;25.80;92.50;;;;;;4995639;28;20504;-86
2022/07/31 08:48:11;;;;;;;4.95;3.13;;;26.30;91.80;;;;;;4997916;28;20068;-86
2022/07/31 08:50:45;;;;;;;5.78;3.08;;;26.40;91.40;;;;;;4996620;28;20503;-86
2022/07/31 08:53:29;;;;;;;8.40;3.05;;;27.00;91.60;;;;;;4997761;28;20037;-85
2022/07/31 08:56:10;;;;;;;5.65;2.67;;;27.30;90.50;;;;;;4997193;28;20026;-86
2022/07/31 08:58:36;;;;;;;4.07;2.90;;;27.30;89.40;;;;;;4995511;28;20409;-85
2022/07/31 09:01:02;;;;;;;6.13;3.10;;;27.80;89.20;;;;;;4995297;28;20033;-85
2022/07/31 09:03:28;;;;;;;7.88;2.65;;;28.40;86.50;;;;;;4994757;28;20422;-85
2022/07/31 09:05:59;;;;;;;;;;;29.20;83.60;;;;;;5012210;28;20026;-85
2022/07/31 09:08:24;;;;;;;3.95;2.60;;;30.20;82.40;;;;;;5011448;28;19910;-86
2022/07/31 09:11:12;;;;;;;5.30;2.10;;;30.90;78.00;;;;;;4995191;28;20697;-85
2022/07/31 09:13:54;;;;;;;3.90;2.47;;;31.20;71.30;;;;;;4996192;28;20026;-85
2022/07/31 09:16:46;;;;;;;4.57;2.85;;;31.00;67.40;;;;;;4998524;28;20040;-85
2022/07/31 09:19:22;;;;;;;;;;;31.20;68.90;;;;;;5012315;28;20034;-85
2022/07/31 09:21:48;;;;;;;5.82;2.50;;;31.60;66.40;;;;;;4995185;28;20384;-85
2022/07/31 09:24:27;;;;;;;4.32;2.15;;;32.40;64.60;;;;;;4995838;28;20516;-86
2022/07/31 09:27:06;;;;;;;4.13;2.50;;;33.30;61.80;;;;;;4999102;28;20036;-86
2022/07/31 09:29:37;;;;;;;2.60;2.22;;;33.40;61.90;;;;;;4999202;28;20037;-86
2022/07/31 09:32:11;;;;;;;6.80;2.50;;;34.40;61.00;;;;;;4999532;28;20080;-86
2022/07/31 09:35:09;;;;;;;5.43;2.50;;;34.50;59.10;;;;;;5015208;28;20117;-87
2022/07/31 09:37:36;;;;;;;3.38;2.47;;;34.10;59.30;;;;;;5014620;28;20436;-88
2022/07/31 09:40:20;;;;;;;2.53;2.30;;;33.70;58.50;;;;;;5015657;28;20091;-87
2022/07/31 09:43:18;;;;;;;3.92;2.40;;;33.50;58.70;;;;;;5015008;28;20408;-86
2022/07/31 09:45:57;;;;;;;4.65;2.30;;;33.40;59.00;;;;;;4997981;28;20048;-86
2022/07/31 09:48:23;;;;;;;5.57;2.70;;;32.40;58.20;;;;;;4998152;28;20503;-86
2022/07/31 09:50:58;;;;;;;3.28;2.42;;;31.20;61.00;;;;;;4997815;28;20030;-85
2022/07/31 09:53:39;;;;;;;4.72;2.45;;;30.70;63.00;;;;;;5013692;28;20029;-86
2022/07/31 09:56:15;;;;;;;4.63;2.50;;;30.50;65.30;;;;;;5013138;28;20030;-85
2022/07/31 09:58:42;;;;;;;3.90;2.42;;;30.40;64.00;;;;;;4997729;28;20143;-86
2022/07/31 10:01:11;;;;;;;3.38;2.88;;;31.00;65.00;;;;;;5014443;28;20389;-86
2022/07/31 10:03:39;;;;;;;6.40;2.90;;;30.90;64.50;;;;;;4997719;28;20030;-86
2022/07/31 10:06:07;;;;;;;5.43;2.47;;;30.30;63.40;;;;;;5014152;28;20563;-86
2022/07/31 10:08:35;;;;;;;5.70;2.65;;;29.80;67.70;;;;;;4997849;28;20026;-84
2022/07/31 10:11:41;;;;;;;4.97;2.35;;;30.00;66.10;;;;;;5004673;28;20042;-85
2022/07/31 10:14:39;;;;;;;6.05;2.50;;;29.80;66.10;;;;;;4998649;28;20026;-86
2022/07/31 10:17:05;;;;;;;3.90;2.00;;;29.50;64.40;;;;;;4998379;28;20030;-86
2022/07/31 10:20:02;;;;;;;3.45;2.45;;;29.80;65.50;;;;;;5014621;28;20084;-86
2022/07/31 10:22:58;;;;;;;3.88;2.20;;;30.40;64.40;;;;;;5014179;28;20030;-86
2022/07/31 10:25:44;;;;;;;5.60;2.75;;;30.50;63.70;;;;;;4998654;28;20856;-86
2022/07/31 10:28:11;;;;;;;6.75;2.28;;;29.80;66.10;;;;;;4998063;28;20040;-85
2022/07/31 10:30:37;;;;;;;5.80;2.97;;;29.50;66.80;;;;;;4997353;28;20367;-85
2022/07/31 10:33:05;;;;;;;3.85;2.20;;;29.20;65.80;;;;;;4997222;28;20037;-85
2022/07/31 10:35:58;;;;;;;3.15;2.55;;;28.90;66.50;;;;;;4993567;28;20124;-85
2022/07/31 10:39:02;;;;;;;7.22;2.28;;;28.50;68.00;;;;;;5009918;28;20029;-85
2022/07/31 10:41:59;;;;;;;4.32;2.58;;;28.40;67.00;;;;;;5013805;28;20176;-85
2022/07/31 10:44:34;;;;;;;6.65;2.50;;;28.40;67.20;;;;;;4996866;28;20037;-86
2022/07/31 10:47:17;;;;;;;5.55;2.50;;;28.50;68.30;;;;;;5012842;28;20497;-86
2022/07/31 10:50:03;;;;;;;4.63;2.50;;;28.80;69.20;;;;;;5014227;28;20517;-85
2022/07/31 10:52:48;;;;;;;5.00;2.50;;;28.80;68.90;;;;;;5013826;28;20045;-85
2022/07/31 10:55:28;;;;;;;6.00;2.80;;;28.30;70.10;;;;;;5013458;28;20048;-85
2022/07/31 10:58:14;;;;;;;4.25;2.30;;;28.20;70.90;;;;;;5013518;28;20034;-85
2022/07/31 11:01:08;;;;;;;7.35;2.50;;;27.60;70.60;;;;;;5013411;28;20037;-85
2022/07/31 11:03:59;;;;;;;4.60;2.58;;;27.20;72.00;;;;;;5014384;28;20045;-85
2022/07/31 11:06:43;;;;;;;9.38;4.18;;;27.10;72.20;;;;;;4999327;28;20025;-86
2022/07/31 11:09:28;;;;;;;4.90;2.35;;;27.80;74.00;;;;;;5013538;28;20045;-85
2022/07/31 11:12:29;;;;;;;3.22;2.40;;;28.40;70.10;;;;;;5014601;28;20030;-85
2022/07/31 11:15:57;;;;;;;3.45;2.45;;;28.40;71.30;;;;;;5010615;28;20040;-85
2022/07/31 11:18:44;;;;;;;3.33;2.20;;;28.50;71.20;;;;;;5014664;28;20826;-85
2022/07/31 11:21:10;;;;;;;6.43;3.00;;;28.50;71.00;;;;;;5012639;28;20041;-86
2022/07/31 11:23:58;;;;;;;7.45;3.40;;;29.00;69.70;;;;;;4996382;28;20034;-85
2022/07/31 11:26:24;;;;;;;4.88;2.42;;;29.10;68.10;;;;;;5012750;28;20037;-86
2022/07/31 11:29:05;;;;;;;6.88;2.45;;;28.70;67.80;;;;;;4996379;28;20363;-84
2022/07/31 11:31:30;;;;;;;3.58;2.38;;;28.60;68.90;;;;;;5014004;28;20029;-85
2022/07/31 11:34:02;;;;;;;5.38;3.03;;;28.60;70.20;;;;;;5012923;28;20041;-86
2022/07/31 11:36:28;;;;;;;6.55;2.20;;;29.10;72.10;;;;;;4996616;28;20053;-86
2022/07/31 11:38:55;;;;;;;2.95;2.25;;;29.50;70.20;;;;;;4996377;28;20401;-86
2022/07/31 11:41:27;;;;;;;5.55;2.22;;;30.00;69.10;;;;;;5012536;28;20044;-86
2022/07/31 11:43:56;;;;;;;5.82;2.60;;;30.00;66.90;;;;;;5012056;28;20026;-86
2022/07/31 11:46:33;;;;;;;5.72;2.65;;;29.40;66.10;;;;;;5012046;28;20474;-86
2022/07/31 11:49:00;;;;;;;4.78;2.72;;;29.30;67.00;;;;;;5012586;28;20026;-85
2022/07/31 11:51:27;;;;;;;6.47;2.55;;;29.40;67.40;;;;;;5012546;28;20121;-86
2022/07/31 11:53:54;;;;;;;4.97;2.30;;;29.10;69.20;;;;;;4993518;28;20025;-85
2022/07/31 11:56:20;;;;;;;7.20;2.40;;;29.30;67.10;;;;;;4996232;28;20072;-86
2022/07/31 11:58:52;;;;;;;4.70;2.95;;;29.50;68.70;;;;;;4996141;28;20125;-85
2022/07/31 12:01:18;;;;;;;5.18;2.22;;;29.80;66.70;;;;;;5012133;28;20030;-85
2022/07/31 12:03:45;;;;;;;4.18;2.58;;;29.60;66.50;;;;;;4995601;28;20065;-85
2022/07/31 12:06:17;;;;;;;4.43;2.47;;;29.10;66.20;;;;;;5012491;28;20049;-86
2022/07/31 12:08:45;;;;;;;;;;;28.70;69.00;;;;;;5012423;28;20030;-86
2022/07/31 12:11:11;;;;;;;6.88;2.97;;;28.50;68.20;;;;;;5011387;28;19979;-85
2022/07/31 12:13:36;;;;;;;6.63;2.58;;;28.50;69.40;;;;;;4995337;28;20481;-86
2022/07/31 12:16:07;;;;;;;4.70;2.35;;;28.70;68.30;;;;;;4995464;28;20026;-85
2022/07/31 12:18:57;;;;;;;;;;;28.70;69.00;;;;;;4995875;28;20524;-85
2022/07/31 12:21:32;;;;;;;5.45;2.25;;;28.70;67.80;;;;;;4994168;28;19909;-86
2022/07/31 12:23:58;;;;;;;3.67;2.33;;;28.90;68.30;;;;;;4995242;28;20084;-86
2022/07/31 12:26:25;;;;;;;5.30;2.20;;;29.10;68.90;;;;;;4994797;28;20041;-86
2022/07/31 12:29:05;;;;;;;3.80;2.35;;;29.10;67.00;;;;;;5011520;28;20025;-86
2022/07/31 12:31:43;;;;;;;3.67;2.20;;;30.10;67.70;;;;;;4995000;28;20076;-85
2022/07/31 12:34:29;;;;;;;5.47;2.22;;;31.00;64.10;;;;;;5011484;28;20421;-86
2022/07/31 12:37:03;;;;;;;9.52;3.40;;;30.90;64.60;;;;;;5012048;28;20513;-86
2022/07/31 12:39:31;;;;;;;3.97;2.00;;;30.80;63.70;;;;;;5011549;28;20068;-85
2022/07/31 12:41:57;;;;;;;3.65;2.20;;;31.20;62.10;;;;;;5011912;28;20041;-85
2022/07/31 12:44:23;;;;;;;7.82;3.05;;;30.30;61.80;;;;;;4995418;28;20034;-84
2022/07/31 12:46:49;;;;;;;7.85;2.13;;;29.50;63.90;;;;;;4995489;28;20751;-85
2022/07/31 12:49:15;;;;;;;4.18;2.20;;;29.50;65.80;;;;;;5011845;28;20034;-85
2022/07/31 12:51:41;;;;;;;4.50;2.25;;;29.60;65.40;;;;;;5011871;28;20030;-84
2022/07/31 12:54:07;;;;;;;2.33;2.00;;;29.60;65.70;;;;;;4995435;28;20026;-85
2022/07/31 12:56:38;;;;;;;3.72;2.30;;;29.50;64.80;;;;;;4995390;28;20028;-86
2022/07/31 12:59:05;;;;;;;9.23;2.38;;;30.00;64.80;;;;;;5014268;28;20041;-85
2022/07/31 13:01:31;;;;;;;4.40;2.40;;;30.30;63.90;;;;;;4997848;28;20053;-85
2022/07/31 13:03:57;;;;;;;3.50;2.50;;;30.00;64.20;;;;;;4999004;28;20062;-84
2022/07/31 13:06:28;;;;;;;5.13;2.30;;;29.40;64.70;;;;;;5016192;28;20117;-84
2022/07/31 13:08:54;;;;;;;4.10;2.47;;;29.00;65.60;;;;;;5015027;28;20127;-85
2022/07/31 13:11:20;;;;;;;2.80;1.90;;;28.90;65.60;;;;;;4998980;28;20065;-85
2022/07/31 13:13:46;;;;;;;4.15;1.92;;;29.50;68.70;;;;;;5014869;28;20504;-85